createdAt,value
2022-12-20T00:02:05.780Z,43.00
2022-12-20T00:04:34.855Z,44.00
2022-12-20T00:07:04.445Z,46.00
2022-12-20T00:09:34.091Z,44.33
2022-12-20T00:12:03.888Z,43.67
2022-12-20T00:14:33.454Z,42.00
2022-12-20T00:17:03.016Z,45.00
2022-12-20T00:19:32.565Z,41.67
2022-12-20T00:22:02.164Z,37.33
2022-12-20T00:24:33.163Z,33.33
2022-12-20T00:27:02.792Z,43.33
2022-12-20T00:29:32.382Z,42.00
2022-12-20T00:32:01.974Z,43.00
2022-12-20T00:34:31.621Z,43.00
2022-12-20T00:37:01.208Z,42.00
2022-12-20T00:39:30.756Z,44.00
2022-12-20T00:42:00.324Z,41.33
2022-12-20T00:44:30.084Z,43.00
2022-12-20T00:46:59.761Z,42.33
2022-12-20T00:49:30.758Z,44.00
2022-12-20T00:52:00.294Z,41.00
2022-12-20T00:54:29.926Z,43.00
2022-12-20T00:56:59.635Z,44.00
2022-12-20T00:59:29.262Z,44.00
2022-12-20T01:01:58.931Z,41.67
2022-12-20T01:04:28.596Z,45.00
2022-12-20T01:06:58.220Z,43.67
2022-12-20T01:09:27.784Z,41.67
2022-12-20T01:11:57.394Z,45.33
2022-12-20T01:14:27.089Z,45.67
2022-12-20T01:16:56.772Z,42.33
2022-12-20T01:19:26.328Z,44.00
2022-12-20T01:21:55.917Z,41.67
2022-12-20T01:24:25.804Z,39.33
2022-12-20T01:26:53.596Z,39.00
2022-12-20T01:29:23.171Z,43.00
2022-12-20T01:31:54.088Z,42.33
2022-12-20T01:34:23.780Z,48.00
2022-12-20T01:36:53.388Z,42.00
2022-12-20T01:39:23.231Z,41.33
2022-12-20T01:41:52.827Z,44.67
2022-12-20T01:44:22.305Z,46.00
2022-12-20T01:46:53.094Z,46.33
2022-12-20T01:49:36.799Z,45.00
2022-12-20T01:52:14.963Z,41.00
2022-12-20T01:55:09.331Z,43.00
2022-12-20T01:57:51.833Z,29.00
2022-12-20T02:00:21.939Z,43.33
2022-12-20T02:02:52.186Z,53.67
2022-12-20T02:05:24.657Z,45.33
2022-12-20T02:07:57.982Z,42.33
2022-12-20T02:11:23.387Z,40.33
2022-12-20T02:14:35.710Z,39.00
2022-12-20T02:17:45.369Z,43.33
2022-12-20T02:21:09.933Z,39.00
2022-12-20T02:24:27.027Z,42.00
2022-12-20T02:27:11.079Z,43.67
2022-12-20T02:30:18.010Z,43.00
2022-12-20T02:33:12.030Z,41.33
2022-12-20T02:35:42.875Z,42.67
2022-12-20T02:38:38.649Z,41.67
2022-12-20T02:41:37.574Z,43.33
2022-12-20T02:44:34.404Z,43.67
2022-12-20T02:47:10.043Z,42.33
2022-12-20T02:49:42.385Z,44.00
2022-12-20T02:52:14.724Z,42.67
2022-12-20T02:54:44.396Z,40.00
2022-12-20T02:58:00.291Z,42.00
2022-12-20T03:00:41.024Z,42.00
2022-12-20T03:03:24.061Z,41.33
2022-12-20T03:05:56.650Z,40.00
2022-12-20T03:08:26.970Z,39.67
2022-12-20T03:10:56.868Z,41.67
2022-12-20T03:13:26.898Z,36.00
2022-12-20T03:15:56.439Z,41.33
2022-12-20T03:18:26.040Z,43.00
2022-12-20T03:20:55.655Z,40.00
2022-12-20T03:23:25.311Z,42.33
2022-12-20T03:25:54.927Z,37.00
2022-12-20T03:28:24.559Z,42.00
2022-12-20T03:30:54.173Z,41.33
2022-12-20T03:33:23.730Z,39.00
2022-12-20T03:35:53.298Z,40.00
2022-12-20T03:38:22.823Z,42.33
2022-12-20T03:40:52.421Z,44.00
2022-12-20T03:43:22.054Z,43.33
2022-12-20T03:45:51.756Z,40.33
2022-12-20T03:48:21.319Z,39.00
2022-12-20T03:50:50.975Z,42.00
2022-12-20T03:53:20.546Z,44.00
2022-12-20T03:55:50.081Z,43.33
2022-12-20T03:58:19.604Z,39.67
2022-12-20T04:00:49.133Z,39.33
2022-12-20T04:03:19.297Z,43.67
2022-12-20T04:05:48.854Z,44.33
2022-12-20T04:08:18.537Z,45.33
2022-12-20T04:11:06.526Z,38.00
2022-12-20T04:13:36.109Z,44.33
2022-12-20T04:16:06.931Z,67.50
2022-12-20T04:18:36.534Z,44.33
2022-12-20T04:21:07.449Z,41.33
2022-12-20T04:23:40.833Z,62.75
2022-12-20T04:26:11.713Z,97.50
2022-12-20T04:28:41.440Z,65.67
2022-12-20T04:31:11.522Z,48.00
2022-12-20T04:33:41.806Z,40.67
2022-12-20T04:36:11.645Z,42.00
2022-12-20T04:38:41.629Z,44.33
2022-12-20T04:41:22.484Z,45.67
2022-12-20T04:43:58.266Z,48.00
2022-12-20T04:46:28.213Z,40.33
2022-12-20T04:48:59.651Z,40.00
2022-12-20T04:51:29.749Z,43.33
2022-12-20T04:53:59.295Z,40.00
2022-12-20T04:56:30.126Z,47.67
2022-12-20T04:59:00.100Z,48.00
2022-12-20T05:01:29.936Z,48.00
2022-12-20T05:03:59.628Z,45.00
2022-12-20T05:06:29.219Z,34.00
2022-12-20T05:08:58.812Z,40.33
2022-12-20T05:11:28.394Z,45.33
2022-12-20T05:13:57.986Z,42.67
2022-12-20T05:16:27.588Z,41.00
2022-12-20T05:18:57.253Z,39.33
2022-12-20T05:21:45.318Z,40.33
2022-12-20T05:24:33.635Z,42.33
2022-12-20T05:27:03.271Z,42.00
2022-12-20T05:29:32.809Z,41.67
2022-12-20T05:32:02.429Z,42.00
2022-12-20T05:34:32.016Z,40.33
2022-12-20T05:37:01.507Z,37.67
2022-12-20T05:39:31.243Z,39.00
2022-12-20T05:42:01.733Z,41.33
2022-12-20T05:44:31.430Z,42.33
2022-12-20T05:47:01.179Z,44.00
2022-12-20T05:49:30.808Z,44.00
2022-12-20T05:52:01.866Z,44.00
2022-12-20T05:54:31.600Z,43.67
2022-12-20T05:57:01.409Z,44.67
2022-12-20T05:59:31.029Z,45.00
2022-12-20T06:02:00.820Z,46.67
2022-12-20T06:04:33.710Z,44.00
2022-12-20T06:07:03.287Z,47.00
2022-12-20T06:09:33.518Z,39.33
2022-12-20T06:12:03.232Z,42.33
2022-12-20T06:14:32.803Z,46.33
2022-12-20T06:17:02.764Z,46.33
2022-12-20T06:19:32.598Z,46.00
2022-12-20T06:22:02.234Z,46.67
2022-12-20T06:24:31.825Z,48.00
2022-12-20T06:27:02.443Z,49.00
2022-12-20T06:29:32.177Z,56.00
2022-12-20T06:32:01.879Z,48.33
2022-12-20T06:34:32.685Z,48.00
2022-12-20T06:37:02.392Z,41.00
2022-12-20T06:39:32.088Z,48.33
2022-12-20T06:42:01.631Z,42.33
2022-12-20T06:44:31.401Z,46.33
2022-12-20T06:47:01.601Z,44.67
2022-12-20T06:49:31.233Z,46.00
2022-12-20T06:52:00.855Z,45.00
2022-12-20T06:54:30.439Z,44.33
2022-12-20T06:57:00.043Z,44.67
2022-12-20T06:59:29.672Z,42.67
2022-12-20T07:01:59.544Z,45.33
2022-12-20T07:04:29.227Z,41.00
2022-12-20T07:06:58.796Z,42.67
2022-12-20T07:09:28.299Z,44.00
2022-12-20T07:11:58.739Z,41.00
2022-12-20T07:14:28.548Z,41.00
2022-12-20T07:16:58.085Z,40.33
2022-12-20T07:19:27.844Z,41.00
2022-12-20T07:21:57.404Z,38.00
2022-12-20T07:24:27.002Z,38.00
2022-12-20T07:26:56.707Z,38.00
2022-12-20T07:29:26.424Z,41.33
2022-12-20T07:31:56.075Z,41.67
2022-12-20T07:34:25.707Z,39.00
2022-12-20T07:36:55.643Z,44.00
2022-12-20T07:39:25.422Z,40.00
2022-12-20T07:41:56.115Z,38.33
2022-12-20T07:44:25.759Z,42.00
2022-12-20T07:46:55.382Z,40.00
2022-12-20T07:49:24.964Z,41.00
2022-12-20T07:51:59.412Z,44.67
2022-12-20T07:54:41.106Z,22.33
2022-12-20T07:57:28.619Z,37.00
2022-12-20T08:00:01.714Z,35.33
2022-12-20T08:03:21.609Z,32.67
2022-12-20T08:05:57.151Z,45.50
2022-12-20T08:08:27.486Z,44.67
2022-12-20T08:10:58.025Z,59.00
2022-12-20T08:13:27.664Z,35.00
2022-12-20T08:15:55.510Z,11.00
2022-12-20T08:18:23.258Z,35.00
2022-12-20T08:20:52.900Z,32.00
2022-12-20T08:23:21.624Z,31.00
2022-12-20T08:25:51.244Z,35.00
2022-12-20T08:28:20.825Z,35.33
2022-12-20T08:30:48.705Z,30.00
2022-12-20T08:33:17.433Z,31.00
2022-12-20T08:35:45.345Z,30.00
2022-12-20T08:38:15.007Z,32.33
2022-12-20T08:40:43.678Z,28.00
2022-12-20T08:43:13.124Z,33.33
2022-12-20T08:45:42.666Z,30.33
2022-12-20T08:48:12.371Z,38.33
2022-12-20T08:50:42.086Z,31.67
2022-12-20T08:53:11.675Z,40.67
2022-12-20T08:55:40.741Z,26.00
2022-12-20T08:58:10.199Z,24.00
2022-12-20T09:00:38.915Z,31.00
2022-12-20T09:03:08.530Z,27.00
2022-12-20T09:05:46.038Z,33.00
2022-12-20T09:08:16.968Z,42.00
2022-12-20T09:10:46.505Z,29.00
2022-12-20T09:13:16.095Z,31.67
2022-12-20T09:15:46.143Z,31.33
2022-12-20T09:18:15.659Z,35.00
2022-12-20T09:20:48.150Z,44.00
2022-12-20T09:23:17.656Z,31.67
2022-12-20T09:25:53.421Z,33.00
2022-12-20T09:28:24.366Z,32.00
2022-12-20T09:30:53.125Z,28.00
2022-12-20T09:33:21.832Z,30.50
2022-12-20T09:35:51.497Z,32.33
2022-12-20T09:38:21.155Z,41.00
2022-12-20T09:40:56.601Z,22.00
2022-12-20T09:43:26.433Z,34.33
2022-12-20T09:46:03.035Z,27.00
2022-12-20T09:48:40.661Z,27.67
2022-12-20T09:51:52.944Z,31.33
2022-12-20T09:55:02.914Z,30.00
2022-12-20T09:58:34.480Z,27.00
2022-12-20T10:01:25.374Z,25.00
2022-12-20T10:03:58.198Z,21.50
2022-12-20T10:07:18.741Z,28.50
2022-12-20T10:10:05.436Z,43.67
2022-12-20T10:13:06.813Z,28.67
2022-12-20T10:15:51.430Z,36.00
2022-12-20T10:19:14.062Z,27.00
2022-12-20T10:22:38.103Z,21.00
2022-12-20T10:25:23.074Z,17.00
2022-12-20T10:27:54.878Z,31.00
2022-12-20T10:30:32.539Z,29.00
2022-12-20T10:33:02.892Z,29.33
2022-12-20T10:35:40.962Z,28.00
2022-12-20T10:38:14.429Z,24.67
2022-12-20T10:44:16.374Z,27.00
2022-12-20T10:47:01.047Z,27.50
2022-12-20T10:49:43.151Z,25.50
2022-12-20T10:52:15.616Z,26.00
2022-12-20T10:54:48.678Z,24.00
2022-12-20T10:57:29.831Z,20.00
2022-12-20T11:00:09.148Z,25.00
2022-12-20T11:02:43.036Z,26.33
2022-12-20T11:05:14.604Z,25.00
2022-12-20T11:08:37.484Z,25.00
2022-12-20T11:11:24.733Z,25.00
2022-12-20T11:13:54.245Z,21.00
2022-12-20T11:16:44.489Z,26.33
2022-12-20T11:19:47.223Z,25.00
2022-12-20T11:22:46.587Z,28.00
2022-12-20T11:25:56.726Z,28.00
2022-12-20T11:28:38.103Z,16.00
2022-12-20T11:31:43.939Z,26.50
2022-12-20T11:34:49.483Z,25.50
2022-12-20T11:37:29.453Z,21.00
2022-12-20T11:40:33.170Z,24.33
2022-12-20T11:43:31.768Z,20.50
2022-12-20T11:46:39.095Z,25.00
2022-12-20T11:49:32.081Z,25.50
2022-12-20T11:52:43.368Z,23.00
2022-12-20T11:55:29.930Z,23.67
2022-12-20T11:58:33.023Z,24.50
2022-12-20T12:01:12.973Z,23.67
2022-12-20T12:03:59.683Z,25.00
2022-12-20T12:06:46.488Z,29.00
2022-12-20T12:09:50.225Z,40.33
2022-12-20T12:12:34.935Z,42.00
2022-12-20T12:15:24.785Z,36.67
2022-12-20T12:18:22.620Z,42.00
2022-12-20T12:21:26.936Z,45.00
2022-12-20T12:24:39.333Z,39.67
2022-12-20T12:27:27.336Z,32.33
2022-12-20T12:29:59.698Z,35.33
2022-12-20T12:32:56.079Z,34.33
2022-12-20T12:35:55.509Z,35.67
2022-12-20T12:39:48.812Z,44.33
2022-12-20T12:43:12.599Z,40.00
2022-12-20T12:46:01.346Z,40.33
2022-12-20T12:48:52.326Z,49.00
2022-12-20T12:51:36.526Z,44.67
2022-12-20T12:54:38.167Z,41.67
2022-12-20T12:57:18.481Z,39.67
2022-12-20T12:59:51.995Z,44.33
2022-12-20T13:02:28.156Z,41.00
2022-12-20T13:05:09.231Z,39.33
2022-12-20T13:07:40.204Z,29.50
2022-12-20T13:10:09.627Z,22.33
2022-12-20T13:12:47.678Z,75.75
2022-12-20T13:15:21.727Z,69.00
2022-12-20T13:18:12.240Z,36.33
2022-12-20T13:20:42.270Z,46.00
2022-12-20T13:23:14.014Z,63.75
2022-12-20T13:25:49.146Z,39.00
2022-12-20T13:28:27.428Z,43.00
2022-12-20T13:31:04.689Z,48.25
2022-12-20T13:33:51.877Z,42.33
2022-12-20T13:36:39.361Z,34.67
2022-12-20T13:39:28.891Z,36.33
2022-12-20T13:42:37.371Z,36.00
2022-12-20T13:45:12.659Z,37.33
2022-12-20T13:47:54.779Z,20.33
2022-12-20T13:50:40.780Z,50.75
2022-12-20T13:53:21.302Z,41.00
2022-12-20T13:55:50.428Z,54.00
2022-12-20T13:58:27.561Z,47.00
2022-12-20T14:01:12.777Z,38.67
2022-12-20T14:03:48.232Z,43.33
2022-12-20T14:06:26.552Z,37.50
2022-12-20T14:08:56.598Z,38.00
2022-12-20T14:11:28.220Z,55.00
2022-12-20T14:14:03.490Z,63.25
2022-12-20T14:16:34.445Z,65.50
2022-12-20T14:19:12.690Z,46.00
2022-12-20T14:21:46.250Z,43.33
2022-12-20T14:24:21.402Z,44.00
2022-12-20T14:26:54.361Z,77.25
2022-12-20T14:29:32.596Z,144.75
2022-12-20T14:32:03.293Z,136.75
2022-12-20T14:34:41.510Z,57.33
2022-12-20T14:37:30.885Z,45.00
2022-12-20T14:40:12.764Z,70.33
2022-12-20T14:42:42.498Z,91.67
2022-12-20T14:45:18.949Z,57.00
2022-12-20T14:48:03.282Z,49.00
2022-12-20T14:50:40.988Z,67.50
2022-12-20T14:53:27.775Z,48.00
2022-12-20T14:55:58.402Z,64.25
2022-12-20T14:58:32.785Z,61.67
2022-12-20T15:01:27.321Z,61.25
2022-12-20T15:04:00.957Z,56.00
2022-12-20T15:06:49.366Z,57.75
2022-12-20T15:09:20.398Z,63.25
2022-12-20T15:11:52.432Z,112.50
2022-12-20T15:14:39.407Z,60.00
2022-12-20T15:17:15.959Z,52.50
2022-12-20T15:19:46.806Z,72.50
2022-12-20T15:22:20.463Z,86.75
2022-12-20T15:24:51.497Z,48.00
2022-12-20T15:27:21.029Z,39.33
2022-12-20T15:29:50.955Z,52.00
2022-12-20T15:32:30.013Z,49.33
2022-12-20T15:34:59.892Z,44.33
2022-12-20T15:37:30.370Z,68.25
2022-12-20T15:40:00.061Z,53.67
2022-12-20T15:42:29.792Z,46.33
2022-12-20T15:44:59.464Z,57.33
2022-12-20T15:47:29.143Z,46.33
2022-12-20T15:49:59.865Z,62.00
2022-12-20T15:52:28.639Z,61.00
2022-12-20T15:54:59.151Z,47.75
2022-12-20T15:57:28.856Z,63.00
2022-12-20T16:00:01.090Z,44.67
2022-12-20T16:02:33.310Z,43.67
2022-12-20T16:05:03.143Z,41.33
2022-12-20T16:07:32.782Z,54.67
2022-12-20T16:10:02.813Z,62.00
2022-12-20T16:12:35.930Z,64.00
2022-12-20T16:15:08.279Z,59.67
2022-12-20T16:17:38.403Z,87.67
2022-12-20T16:20:11.838Z,58.25
2022-12-20T16:22:41.566Z,58.00
2022-12-20T16:25:32.097Z,56.50
2022-12-20T16:28:03.587Z,58.00
2022-12-20T16:30:34.944Z,56.25
2022-12-20T16:33:06.688Z,66.50
2022-12-20T16:35:37.514Z,43.33
2022-12-20T16:38:07.256Z,45.33
2022-12-20T16:40:37.748Z,63.25
2022-12-20T16:43:16.053Z,45.00
2022-12-20T16:45:46.890Z,45.67
2022-12-20T16:48:17.532Z,47.00
2022-12-20T16:50:47.131Z,46.33
2022-12-20T16:53:16.804Z,47.67
2022-12-20T16:55:46.457Z,49.33
2022-12-20T16:58:16.461Z,43.00
2022-12-20T17:00:46.091Z,43.67
2022-12-20T17:03:15.773Z,45.00
2022-12-20T17:05:46.190Z,42.00
2022-12-20T17:11:02.207Z,46.33
2022-12-20T17:17:51.305Z,38.00
2022-12-20T17:20:23.869Z,45.00
2022-12-20T17:25:40.332Z,47.33
2022-12-20T17:28:09.885Z,41.00
2022-12-20T17:30:39.603Z,45.33
2022-12-20T17:33:15.523Z,43.00
2022-12-20T17:35:45.099Z,45.33
2022-12-20T17:38:14.700Z,44.00
2022-12-20T17:40:44.337Z,46.00
2022-12-20T17:43:16.376Z,46.67
2022-12-20T17:45:45.990Z,41.00
2022-12-20T17:48:15.669Z,50.33
2022-12-20T17:50:45.279Z,46.67
2022-12-20T17:53:14.892Z,50.00
2022-12-20T17:55:44.684Z,52.67
2022-12-20T17:58:15.941Z,63.00
2022-12-20T18:00:43.716Z,75.50
2022-12-20T18:03:52.977Z,53.00
2022-12-20T18:06:08.379Z,53.33
2022-12-20T18:08:37.407Z,35.50
2022-12-20T18:11:10.279Z,61.75
2022-12-20T18:13:47.756Z,47.00
2022-12-20T18:16:28.702Z,46.00
2022-12-20T18:18:59.556Z,47.33
2022-12-20T18:21:29.286Z,46.33
2022-12-20T18:23:59.047Z,57.67
2022-12-20T18:26:33.640Z,68.75
2022-12-20T18:29:04.124Z,91.75
2022-12-20T18:31:36.298Z,97.50
2022-12-20T18:34:06.391Z,93.25
2022-12-20T18:36:38.680Z,79.00
2022-12-20T18:39:11.961Z,48.00
2022-12-20T18:41:44.372Z,67.75
2022-12-20T18:44:14.060Z,58.33
2022-12-20T18:46:43.722Z,63.33
2022-12-20T18:49:14.168Z,80.25
2022-12-20T18:51:44.686Z,72.75
2022-12-20T18:54:15.171Z,62.50
2022-12-20T18:56:44.863Z,56.33
2022-12-20T18:59:14.592Z,52.67
2022-12-20T19:01:45.282Z,64.75
2022-12-20T19:04:22.474Z,57.00
2022-12-20T19:06:55.026Z,58.00
2022-12-20T19:09:24.946Z,111.75
2022-12-20T19:11:57.388Z,74.33
2022-12-20T19:14:27.744Z,55.00
2022-12-20T19:16:57.435Z,50.33
2022-12-20T19:19:28.029Z,51.50
2022-12-20T19:21:58.992Z,109.67
2022-12-20T19:24:29.495Z,62.50
2022-12-20T19:26:59.203Z,84.00
2022-12-20T19:29:29.721Z,72.50
2022-12-20T19:31:57.520Z,69.00
2022-12-20T19:34:27.165Z,50.33
2022-12-20T19:36:57.896Z,54.33
2022-12-20T19:39:28.971Z,58.33
2022-12-20T19:42:23.126Z,45.00
2022-12-20T19:44:50.428Z,43.33
2022-12-20T19:47:20.085Z,51.67
2022-12-20T19:49:49.785Z,49.33
2022-12-20T19:52:24.813Z,56.00
2022-12-20T19:54:55.948Z,61.00
2022-12-20T19:57:26.425Z,51.00
2022-12-20T19:59:57.333Z,67.50
2022-12-20T20:02:27.132Z,54.33
2022-12-20T20:04:57.785Z,63.50
2022-12-20T20:07:27.434Z,50.00
2022-12-20T20:09:57.058Z,46.67
2022-12-20T20:12:26.720Z,48.67
2022-12-20T20:14:56.394Z,60.00
2022-12-20T20:17:26.896Z,57.75
2022-12-20T20:19:57.363Z,58.50
2022-12-20T20:22:27.823Z,50.25
2022-12-20T20:24:57.441Z,51.50
2022-12-20T20:27:27.050Z,47.33
2022-12-20T20:29:56.693Z,44.00
2022-12-20T20:32:27.233Z,73.50
2022-12-20T20:34:56.708Z,41.33
2022-12-20T20:37:27.228Z,99.00
2022-12-20T20:39:56.833Z,46.33
2022-12-20T20:42:26.453Z,44.33
2022-12-20T20:44:56.107Z,57.67
2022-12-20T20:47:25.929Z,46.33
2022-12-20T20:49:55.643Z,44.33
2022-12-20T20:52:25.333Z,47.67
2022-12-20T20:54:54.921Z,43.33
2022-12-20T20:57:24.520Z,42.33
2022-12-20T20:59:54.110Z,44.00
2022-12-20T21:02:24.698Z,42.33
2022-12-20T21:05:35.748Z,42.00
2022-12-20T21:07:45.741Z,53.33
2022-12-20T21:10:15.670Z,50.00
2022-12-20T21:12:46.369Z,56.25
2022-12-20T21:15:24.309Z,52.33
2022-12-20T21:17:55.753Z,38.00
2022-12-20T21:20:26.429Z,46.00
2022-12-20T21:22:57.437Z,43.67
2022-12-20T21:25:27.475Z,43.67
2022-12-20T21:27:57.855Z,44.33
2022-12-20T21:30:27.459Z,43.00
2022-12-20T21:32:57.111Z,45.33
2022-12-20T21:35:27.224Z,44.00
2022-12-20T21:37:56.831Z,51.00
2022-12-20T21:40:26.437Z,43.67
2022-12-20T21:42:55.986Z,38.00
2022-12-20T21:45:25.572Z,39.33
2022-12-20T21:48:01.180Z,41.00
2022-12-20T21:50:32.657Z,42.00
2022-12-20T21:53:02.149Z,41.67
2022-12-20T21:55:31.668Z,42.00
2022-12-20T21:58:01.194Z,39.00
2022-12-20T22:00:30.770Z,42.67
2022-12-20T22:03:00.603Z,44.00
2022-12-20T22:05:30.483Z,42.33
2022-12-20T22:08:00.036Z,43.00
2022-12-20T22:10:29.561Z,43.00
2022-12-20T22:12:59.090Z,41.00
2022-12-20T22:15:28.644Z,41.33
2022-12-20T22:17:58.185Z,42.33
2022-12-20T22:20:27.704Z,38.33
2022-12-20T22:22:57.256Z,38.67
2022-12-20T22:25:26.924Z,39.33
2022-12-20T22:27:56.465Z,40.00
2022-12-20T22:30:25.977Z,40.67
2022-12-20T22:32:55.672Z,42.33
2022-12-20T22:35:25.727Z,43.00
2022-12-20T22:37:55.336Z,43.00
2022-12-20T22:40:24.876Z,41.67
2022-12-20T22:42:54.408Z,42.67
2022-12-20T22:45:24.208Z,41.33
2022-12-20T22:47:53.839Z,43.00
2022-12-20T22:50:23.344Z,42.00
2022-12-20T22:52:52.853Z,42.33
2022-12-20T22:55:22.366Z,42.67
2022-12-20T22:57:51.898Z,41.33
2022-12-20T23:00:21.760Z,40.00
2022-12-20T23:02:51.653Z,38.33
2022-12-20T23:05:20.540Z,39.00
2022-12-20T23:07:50.068Z,35.67
2022-12-20T23:10:38.534Z,40.00
2022-12-20T23:13:27.249Z,40.00
2022-12-20T23:15:57.004Z,40.33
2022-12-20T23:18:26.526Z,37.67
2022-12-20T23:21:15.108Z,38.67
2022-12-20T23:23:44.891Z,41.33
2022-12-20T23:26:17.127Z,38.33
2022-12-20T23:28:46.842Z,41.00
2022-12-20T23:31:16.570Z,46.00
2022-12-20T23:33:46.306Z,44.00
2022-12-20T23:36:15.841Z,42.00
2022-12-20T23:38:45.383Z,41.33
2022-12-20T23:41:16.405Z,38.33
2022-12-20T23:43:46.065Z,40.00
2022-12-20T23:46:18.869Z,39.67
2022-12-20T23:48:51.070Z,42.33
2022-12-20T23:51:22.489Z,40.67
2022-12-20T23:53:52.904Z,40.00
2022-12-20T23:56:23.640Z,43.00
2022-12-20T23:58:55.361Z,43.33
